createdAt,value
2022-12-11T00:01:10.667Z,15.63
2022-12-11T00:04:08.375Z,26.93
2022-12-11T00:07:06.483Z,21.80
2022-12-11T00:10:05.267Z,27.43
2022-12-11T00:13:03.306Z,24.57
2022-12-11T00:16:01.315Z,20.63
2022-12-11T00:18:59.405Z,17.23
2022-12-11T00:21:57.353Z,28.20
2022-12-11T00:24:55.432Z,24.70
2022-12-11T00:27:53.218Z,29.10
2022-12-11T00:30:51.133Z,38.63
2022-12-11T00:33:49.853Z,28.57
2022-12-11T00:36:47.794Z,28.07
2022-12-11T00:39:46.248Z,36.43
2022-12-11T00:42:44.170Z,24.93
2022-12-11T00:45:44.397Z,16.83
2022-12-11T00:48:42.349Z,28.37
2022-12-11T00:51:40.185Z,21.33
2022-12-11T00:54:38.093Z,25.17
2022-12-11T00:57:35.914Z,18.07
2022-12-11T01:00:34.418Z,15.97
2022-12-11T01:03:32.215Z,18.00
2022-12-11T01:06:30.425Z,15.13
2022-12-11T01:09:43.542Z,19.63
2022-12-11T01:12:41.614Z,21.10
2022-12-11T01:15:42.380Z,23.43
2022-12-11T01:18:40.884Z,20.50
2022-12-11T01:21:38.618Z,18.37
2022-12-11T01:24:36.593Z,38.27
2022-12-11T01:27:34.342Z,19.90
2022-12-11T01:30:32.778Z,24.23
2022-12-11T01:33:30.581Z,38.50
2022-12-11T01:36:28.495Z,29.73
2022-12-11T01:39:26.435Z,41.17
2022-12-11T01:42:25.781Z,33.57
2022-12-11T01:45:42.331Z,41.23
2022-12-11T01:48:42.396Z,23.03
2022-12-11T01:51:49.778Z,23.40
2022-12-11T01:54:49.084Z,25.83
2022-12-11T01:57:50.171Z,34.40
2022-12-11T02:00:49.124Z,34.90
2022-12-11T02:03:47.287Z,24.37
2022-12-11T02:06:48.100Z,22.60
2022-12-11T02:09:48.725Z,24.83
2022-12-11T02:13:00.585Z,22.50
2022-12-11T02:16:29.312Z,15.47
2022-12-11T02:19:45.105Z,13.80
2022-12-11T02:22:59.609Z,19.40
2022-12-11T02:26:32.466Z,24.37
2022-12-11T02:29:37.687Z,19.53
2022-12-11T02:32:46.970Z,16.77
2022-12-11T02:35:48.000Z,16.20
2022-12-11T02:38:51.329Z,13.70
2022-12-11T02:44:51.132Z,10.63
2022-12-11T02:47:50.221Z,10.23
2022-12-11T02:50:51.014Z,14.70
2022-12-11T02:53:50.862Z,14.50
2022-12-11T02:56:57.260Z,19.13
2022-12-11T02:59:55.367Z,16.20
2022-12-11T03:02:53.127Z,25.63
2022-12-11T03:05:51.201Z,18.00
2022-12-11T03:08:52.425Z,14.57
2022-12-11T03:11:50.365Z,19.63
2022-12-11T03:14:49.519Z,24.07
2022-12-11T03:18:15.774Z,20.13
2022-12-11T03:21:27.907Z,20.30
2022-12-11T03:24:47.227Z,15.15
2022-12-11T03:27:56.924Z,14.13
2022-12-11T03:30:57.311Z,14.90
2022-12-11T03:34:00.431Z,15.10
2022-12-11T03:37:00.874Z,22.70
2022-12-11T03:40:05.117Z,18.03
2022-12-11T03:43:04.194Z,14.07
2022-12-11T03:46:02.699Z,42.70
2022-12-11T03:49:06.719Z,32.97
2022-12-11T03:52:05.850Z,36.20
2022-12-11T03:55:05.945Z,30.17
2022-12-11T03:58:03.909Z,20.00
2022-12-11T04:01:01.880Z,36.07
2022-12-11T04:03:59.655Z,35.77
2022-12-11T04:06:57.752Z,39.43
2022-12-11T04:09:55.757Z,24.77
2022-12-11T04:12:53.595Z,25.07
2022-12-11T04:15:51.357Z,23.83
2022-12-11T04:19:04.819Z,22.63
2022-12-11T04:22:18.265Z,30.20
2022-12-11T04:25:16.070Z,31.67
2022-12-11T04:28:13.837Z,26.23
2022-12-11T04:31:15.146Z,30.87
2022-12-11T04:34:13.193Z,40.00
2022-12-11T04:37:11.033Z,47.70
2022-12-11T04:40:12.226Z,58.80
2022-12-11T04:43:10.090Z,65.07
2022-12-11T04:46:12.537Z,69.30
2022-12-11T04:49:10.818Z,80.45
2022-12-11T04:52:08.578Z,88.90
2022-12-11T04:55:08.264Z,93.40
2022-12-11T04:58:06.226Z,93.03
2022-12-11T05:01:21.503Z,78.73
2022-12-11T05:04:20.004Z,90.17
2022-12-11T05:07:17.961Z,86.23
2022-12-11T05:10:15.699Z,80.73
2022-12-11T05:13:13.782Z,81.57
2022-12-11T05:16:15.109Z,81.67
2022-12-11T05:19:13.364Z,62.77
2022-12-11T05:22:11.087Z,60.67
2022-12-11T05:25:09.827Z,67.70
2022-12-11T05:28:07.855Z,59.93
2022-12-11T05:31:08.875Z,58.23
2022-12-11T05:34:06.673Z,68.87
2022-12-11T05:37:04.641Z,83.50
2022-12-11T05:40:02.729Z,72.57
2022-12-11T05:43:00.710Z,84.53
2022-12-11T05:46:09.491Z,94.70
2022-12-11T05:49:09.173Z,96.07
2022-12-11T05:52:06.895Z,107.40
2022-12-11T05:55:05.136Z,118.50
2022-12-11T05:58:03.069Z,130.57
2022-12-11T06:01:02.751Z,177.57
2022-12-11T06:04:01.541Z,164.50
2022-12-11T06:07:00.243Z,173.60
2022-12-11T06:09:57.990Z,201.67
2022-12-11T06:12:55.823Z,196.97
2022-12-11T06:15:53.995Z,209.57
2022-12-11T06:18:57.015Z,204.87
2022-12-11T06:21:56.055Z,215.20
2022-12-11T06:24:54.076Z,207.87
2022-12-11T06:27:52.773Z,221.07
2022-12-11T06:30:50.869Z,211.97
2022-12-11T06:33:48.647Z,217.93
2022-12-11T06:36:46.626Z,218.63
2022-12-11T06:39:44.634Z,218.70
2022-12-11T06:42:42.774Z,214.07
2022-12-11T06:45:40.812Z,211.23
2022-12-11T06:48:39.066Z,213.70
2022-12-11T06:51:36.814Z,227.37
2022-12-11T06:54:34.742Z,202.03
2022-12-11T06:57:33.170Z,215.27
2022-12-11T07:00:31.752Z,210.50
2022-12-11T07:03:29.989Z,210.07
2022-12-11T07:06:29.181Z,224.70
2022-12-11T07:09:27.015Z,212.17
2022-12-11T07:12:25.094Z,209.97
2022-12-11T07:15:22.954Z,200.80
2022-12-11T07:18:20.770Z,202.40
2022-12-11T07:21:20.247Z,204.57
2022-12-11T07:24:18.432Z,222.87
2022-12-11T07:27:16.866Z,185.70
2022-12-11T07:30:16.102Z,207.97
2022-12-11T07:33:13.968Z,200.77
2022-12-11T07:36:14.735Z,204.13
2022-12-11T07:39:13.604Z,201.37
2022-12-11T07:42:11.581Z,189.10
2022-12-11T07:45:09.885Z,202.53
2022-12-11T07:48:08.042Z,198.20
2022-12-11T07:51:27.017Z,183.87
2022-12-11T07:54:24.848Z,178.20
2022-12-11T07:57:22.735Z,186.13
2022-12-11T08:00:21.178Z,202.93
2022-12-11T08:03:18.924Z,202.87
2022-12-11T08:06:17.656Z,195.23
2022-12-11T08:09:21.140Z,182.80
2022-12-11T08:12:19.357Z,181.17
2022-12-11T08:15:17.336Z,201.57
2022-12-11T08:18:15.147Z,238.43
2022-12-11T08:21:20.259Z,234.70
2022-12-11T08:24:21.173Z,209.17
2022-12-11T08:27:18.965Z,225.27
2022-12-11T08:30:16.800Z,224.07
2022-12-11T08:33:14.506Z,220.43
2022-12-11T08:36:16.350Z,210.40
2022-12-11T08:39:14.259Z,263.77
2022-12-11T08:42:12.241Z,252.17
2022-12-11T08:45:10.833Z,248.23
2022-12-11T08:48:08.949Z,268.37
2022-12-11T08:51:08.956Z,271.43
2022-12-11T08:54:06.818Z,268.80
2022-12-11T08:57:04.880Z,247.77
2022-12-11T09:00:02.833Z,254.30
2022-12-11T09:03:00.548Z,252.57
2022-12-11T09:05:58.350Z,272.87
2022-12-11T09:08:57.059Z,274.10
2022-12-11T09:11:54.859Z,260.70
2022-12-11T09:14:52.777Z,257.93
2022-12-11T09:17:50.624Z,244.00
2022-12-11T09:20:48.444Z,246.37
2022-12-11T09:23:47.363Z,231.13
2022-12-11T09:26:45.193Z,238.33
2022-12-11T09:29:43.171Z,255.77
2022-12-11T09:32:41.038Z,254.43
2022-12-11T09:35:38.874Z,244.73
2022-12-11T09:38:37.165Z,232.33
2022-12-11T09:42:05.602Z,240.67
2022-12-11T09:45:05.795Z,225.87
2022-12-11T09:48:04.079Z,242.87
2022-12-11T09:51:07.875Z,240.27
2022-12-11T09:54:07.315Z,241.27
2022-12-11T09:57:24.636Z,220.63
2022-12-11T10:00:29.601Z,240.53
2022-12-11T10:03:44.848Z,241.33
2022-12-11T10:07:03.288Z,263.03
2022-12-11T10:10:19.488Z,239.10
2022-12-11T10:13:34.297Z,254.90
2022-12-11T10:16:41.148Z,244.67
2022-12-11T10:19:41.814Z,250.47
2022-12-11T10:22:39.611Z,226.80
2022-12-11T10:25:45.344Z,224.73
2022-12-11T10:28:43.369Z,243.80
2022-12-11T10:31:54.149Z,234.50
2022-12-11T10:35:01.409Z,237.20
2022-12-11T10:38:12.742Z,224.43
2022-12-11T10:41:18.306Z,211.97
2022-12-11T10:44:20.351Z,219.43
2022-12-11T10:47:19.802Z,216.93
2022-12-11T10:50:27.045Z,233.67
2022-12-11T10:53:26.352Z,211.03
2022-12-11T10:56:29.744Z,221.73
2022-12-11T11:02:38.455Z,206.83
2022-12-11T11:05:37.950Z,221.33
2022-12-11T11:08:43.173Z,227.13
2022-12-11T11:11:51.188Z,215.83
2022-12-11T11:15:01.949Z,201.07
2022-12-11T11:18:12.347Z,215.33
2022-12-11T11:21:20.365Z,198.67
2022-12-11T11:24:27.399Z,213.73
2022-12-11T11:27:37.759Z,207.60
2022-12-11T11:30:40.053Z,208.10
2022-12-11T11:33:45.871Z,231.07
2022-12-11T11:36:43.740Z,199.93
2022-12-11T11:39:45.701Z,218.43
2022-12-11T11:42:51.838Z,228.93
2022-12-11T11:46:06.816Z,211.40
2022-12-11T11:49:21.521Z,234.20
2022-12-11T11:52:41.862Z,219.67
2022-12-11T11:56:01.525Z,225.37
2022-12-11T11:59:30.585Z,238.27
2022-12-11T12:02:29.366Z,222.27
2022-12-11T12:05:44.168Z,226.43
2022-12-11T12:09:13.481Z,207.13
2022-12-11T12:12:25.673Z,217.20
2022-12-11T12:15:38.713Z,230.63
2022-12-11T12:18:46.810Z,222.37
2022-12-11T12:21:49.897Z,215.40
2022-12-11T12:25:01.395Z,215.23
2022-12-11T12:28:12.799Z,214.53
2022-12-11T12:31:33.443Z,191.00
2022-12-11T12:34:53.436Z,219.73
2022-12-11T12:38:02.790Z,201.13
2022-12-11T12:41:21.361Z,219.53
2022-12-11T12:44:22.972Z,195.20
2022-12-11T12:47:22.200Z,190.83
2022-12-11T12:50:24.897Z,226.20
2022-12-11T12:53:26.487Z,207.63
2022-12-11T12:56:26.625Z,210.73
2022-12-11T12:59:28.098Z,190.57
2022-12-11T13:02:26.683Z,204.73
2022-12-11T13:05:28.954Z,197.57
2022-12-11T13:08:31.721Z,215.47
2022-12-11T13:11:37.005Z,219.55
2022-12-11T13:14:35.485Z,212.17
2022-12-11T13:17:39.279Z,221.03
2022-12-11T13:20:51.596Z,212.00
2022-12-11T13:23:49.531Z,205.30
2022-12-11T13:26:49.218Z,192.57
2022-12-11T13:29:46.922Z,180.70
2022-12-11T13:32:56.314Z,189.93
2022-12-11T13:36:24.988Z,196.10
2022-12-11T13:39:28.253Z,194.87
2022-12-11T13:42:33.179Z,179.20
2022-12-11T13:45:41.535Z,186.30
2022-12-11T13:48:46.502Z,170.97
2022-12-11T13:51:54.077Z,194.13
2022-12-11T13:54:55.016Z,179.20
2022-12-11T13:57:53.436Z,180.90
2022-12-11T14:01:12.014Z,185.83
2022-12-11T14:04:16.891Z,199.90
2022-12-11T14:07:23.857Z,195.20
2022-12-11T14:10:25.368Z,200.60
2022-12-11T14:13:35.857Z,168.37
2022-12-11T14:16:34.438Z,175.23
2022-12-11T14:19:32.423Z,198.13
2022-12-11T14:22:31.220Z,197.67
2022-12-11T14:25:28.967Z,182.93
2022-12-11T14:28:29.806Z,180.60
2022-12-11T14:31:34.761Z,203.10
2022-12-11T14:34:38.211Z,193.83
2022-12-11T14:37:37.704Z,205.23
2022-12-11T14:40:40.889Z,199.40
2022-12-11T14:43:45.628Z,184.65
2022-12-11T14:46:55.564Z,177.67
2022-12-11T14:50:02.672Z,172.23
2022-12-11T14:53:04.943Z,184.97
2022-12-11T14:56:06.647Z,171.60
2022-12-11T14:59:07.708Z,183.27
2022-12-11T15:02:28.029Z,186.70
2022-12-11T15:05:26.849Z,199.40
2022-12-11T15:08:31.490Z,191.77
2022-12-11T15:11:33.137Z,169.43
2022-12-11T15:14:30.933Z,230.57
2022-12-11T15:17:29.892Z,165.93
2022-12-11T15:20:30.330Z,207.20
2022-12-11T15:23:29.790Z,194.37
2022-12-11T15:26:37.711Z,184.67
2022-12-11T15:29:40.893Z,191.63
2022-12-11T15:32:38.699Z,167.93
2022-12-11T15:35:37.766Z,178.33
2022-12-11T15:38:40.020Z,191.43
2022-12-11T15:41:37.989Z,165.23
2022-12-11T15:44:35.788Z,208.60
2022-12-11T15:47:34.205Z,208.37
2022-12-11T15:50:31.990Z,190.83
2022-12-11T15:53:30.233Z,183.50
2022-12-11T15:56:28.288Z,215.97
2022-12-11T15:59:26.253Z,160.13
2022-12-11T16:02:24.919Z,193.03
2022-12-11T16:05:22.997Z,199.47
2022-12-11T16:08:23.844Z,184.53
2022-12-11T16:11:21.773Z,177.87
2022-12-11T16:14:19.502Z,171.50
2022-12-11T16:17:17.514Z,190.00
2022-12-11T16:20:15.467Z,171.63
2022-12-11T16:23:15.051Z,173.90
2022-12-11T16:26:14.543Z,151.27
2022-12-11T16:29:12.491Z,174.63
2022-12-11T16:32:11.088Z,164.80
2022-12-11T16:35:09.811Z,184.30
2022-12-11T16:38:08.266Z,154.50
2022-12-11T16:41:06.733Z,154.20
2022-12-11T16:44:05.111Z,161.57
2022-12-11T16:47:03.039Z,146.57
2022-12-11T16:50:02.078Z,178.20
2022-12-11T16:53:00.258Z,153.27
2022-12-11T16:55:58.038Z,156.93
2022-12-11T16:58:55.988Z,114.27
2022-12-11T17:01:53.835Z,144.73
2022-12-11T17:04:54.014Z,144.10
2022-12-11T17:07:52.952Z,135.63
2022-12-11T17:10:51.867Z,137.83
2022-12-11T17:13:55.805Z,143.77
2022-12-11T17:16:55.874Z,129.60
2022-12-11T17:19:54.878Z,148.60
2022-12-11T17:22:52.822Z,148.03
2022-12-11T17:25:50.590Z,131.40
2022-12-11T17:28:48.610Z,131.07
2022-12-11T17:31:46.616Z,146.67
2022-12-11T17:34:44.795Z,150.80
2022-12-11T17:37:42.560Z,144.80
2022-12-11T17:40:43.184Z,158.80
2022-12-11T17:43:41.427Z,157.33
2022-12-11T17:46:39.492Z,139.53
2022-12-11T17:49:37.511Z,140.13
2022-12-11T17:52:38.446Z,162.33
2022-12-11T17:55:43.297Z,178.80
2022-12-11T17:58:41.413Z,125.67
2022-12-11T18:01:39.586Z,149.93
2022-12-11T18:04:39.652Z,166.20
2022-12-11T18:07:38.765Z,147.40
2022-12-11T18:10:52.325Z,152.00
2022-12-11T18:13:53.342Z,148.67
2022-12-11T18:16:52.797Z,162.13
2022-12-11T18:19:50.616Z,158.00
2022-12-11T18:22:49.165Z,154.43
2022-12-11T18:25:47.147Z,153.37
2022-12-11T18:28:46.843Z,172.57
2022-12-11T18:31:44.781Z,175.07
2022-12-11T18:34:43.029Z,158.87
2022-12-11T18:37:41.687Z,162.00
2022-12-11T18:40:39.954Z,162.27
2022-12-11T18:43:38.484Z,186.57
2022-12-11T18:46:36.530Z,180.43
2022-12-11T18:49:34.336Z,164.03
2022-12-11T18:52:32.311Z,205.73
2022-12-11T18:55:30.215Z,179.17
2022-12-11T18:58:28.177Z,188.53
2022-12-11T19:01:29.415Z,169.27
2022-12-11T19:04:27.748Z,220.87
2022-12-11T19:07:25.541Z,207.30
2022-12-11T19:10:23.600Z,179.30
2022-12-11T19:13:21.429Z,196.63
2022-12-11T19:16:24.468Z,200.97
2022-12-11T19:19:23.881Z,212.20
2022-12-11T19:22:22.044Z,220.07
2022-12-11T19:25:20.018Z,225.83
2022-12-11T19:28:18.256Z,215.73
2022-12-11T19:31:19.273Z,221.23
2022-12-11T19:34:17.550Z,202.60
2022-12-11T19:37:15.352Z,206.97
2022-12-11T19:40:15.037Z,208.70
2022-12-11T19:43:12.979Z,214.87
2022-12-11T19:46:11.088Z,174.73
2022-12-11T19:49:08.825Z,194.83
2022-12-11T19:52:06.749Z,171.53
2022-12-11T19:55:06.268Z,189.47
2022-12-11T19:58:04.260Z,167.17
2022-12-11T20:01:03.240Z,199.97
2022-12-11T20:04:05.115Z,159.23
2022-12-11T20:07:02.987Z,162.63
2022-12-11T20:10:01.080Z,168.23
2022-12-11T20:12:59.675Z,175.53
2022-12-11T20:15:57.589Z,159.90
2022-12-11T20:18:56.743Z,168.23
2022-12-11T20:21:54.744Z,147.47
2022-12-11T20:24:53.327Z,158.40
2022-12-11T20:27:51.828Z,166.67
2022-12-11T20:30:50.667Z,156.90
2022-12-11T20:33:50.615Z,159.93
2022-12-11T20:36:49.703Z,154.23
2022-12-11T20:39:47.743Z,137.13
2022-12-11T20:42:45.623Z,156.73
2022-12-11T20:45:49.151Z,163.30
2022-12-11T20:48:48.453Z,155.70
2022-12-11T20:51:46.371Z,161.43
2022-12-11T20:54:44.510Z,164.53
2022-12-11T20:57:45.211Z,156.87
2022-12-11T21:00:44.320Z,200.97
2022-12-11T21:03:43.019Z,158.90
2022-12-11T21:06:42.456Z,162.63
2022-12-11T21:09:40.806Z,160.03
2022-12-11T21:12:38.783Z,155.07
2022-12-11T21:15:38.977Z,142.83
2022-12-11T21:18:37.601Z,137.83
2022-12-11T21:21:37.515Z,130.93
2022-12-11T21:24:35.301Z,157.40
2022-12-11T21:27:33.373Z,139.37
2022-12-11T21:30:31.155Z,122.83
2022-12-11T21:33:29.167Z,127.80
2022-12-11T21:36:27.591Z,127.23
2022-12-11T21:39:26.889Z,112.67
2022-12-11T21:42:26.367Z,138.33
2022-12-11T21:45:59.334Z,140.33
2022-12-11T21:48:45.095Z,136.80
2022-12-11T21:51:47.100Z,143.93
2022-12-11T21:54:45.530Z,139.57
2022-12-11T21:57:43.402Z,140.47
2022-12-11T22:00:41.227Z,122.13
2022-12-11T22:03:39.199Z,129.37
2022-12-11T22:06:37.264Z,114.63
2022-12-11T22:09:35.213Z,126.97
2022-12-11T22:12:33.361Z,134.77
2022-12-11T22:15:31.520Z,117.53
2022-12-11T22:18:30.375Z,107.87
2022-12-11T22:21:28.363Z,104.17
2022-12-11T22:24:26.282Z,104.00
2022-12-11T22:27:24.258Z,90.30
2022-12-11T22:30:22.240Z,91.40
2022-12-11T22:33:20.226Z,86.20
2022-12-11T22:36:19.400Z,81.33
2022-12-11T22:39:17.381Z,61.57
2022-12-11T22:42:15.249Z,65.13
2022-12-11T22:45:14.061Z,61.73
2022-12-11T22:48:12.118Z,72.13
2022-12-11T22:51:10.323Z,64.80
2022-12-11T22:54:08.104Z,54.03
2022-12-11T22:57:06.094Z,63.37
2022-12-11T23:00:07.677Z,57.77
2022-12-11T23:03:05.757Z,65.10
2022-12-11T23:06:08.779Z,52.67
2022-12-11T23:09:06.791Z,68.35
2022-12-11T23:12:04.720Z,80.13
2022-12-11T23:15:02.843Z,75.37
2022-12-11T23:18:00.745Z,76.97
2022-12-11T23:20:58.690Z,65.43
2022-12-11T23:23:57.538Z,88.90
2022-12-11T23:26:55.461Z,65.33
2022-12-11T23:29:53.535Z,88.77
2022-12-11T23:32:52.023Z,90.63
2022-12-11T23:35:49.831Z,61.57
2022-12-11T23:38:54.130Z,67.47
2022-12-11T23:41:52.246Z,66.63
2022-12-11T23:44:50.287Z,86.03
2022-12-11T23:47:48.138Z,86.40
2022-12-11T23:50:46.444Z,67.87
2022-12-11T23:53:44.936Z,56.60
2022-12-11T23:56:42.856Z,55.47
2022-12-11T23:59:40.629Z,61.13
